sensor_id;sensor_type;location;lat;lon;timestamp;temperature;humidity
52941;DHT22;62001;53.366;6.636;2023-07-31T00:00:30;16.50;99.90
52941;DHT22;62001;53.366;6.636;2023-07-31T00:02:56;16.50;99.90
52941;DHT22;62001;53.366;6.636;2023-07-31T00:05:21;16.50;99.90
52941;DHT22;62001;53.366;6.636;2023-07-31T00:07:47;16.50;99.90
52941;DHT22;62001;53.366;6.636;2023-07-31T00:10:13;16.50;99.90
52941;DHT22;62001;53.366;6.636;2023-07-31T00:12:41;16.50;99.90
52941;DHT22;62001;53.366;6.636;2023-07-31T00:15:08;16.50;99.90
52941;DHT22;62001;53.366;6.636;2023-07-31T00:17:34;16.50;99.90
52941;DHT22;62001;53.366;6.636;2023-07-31T00:20:00;16.50;99.90
52941;DHT22;62001;53.366;6.636;2023-07-31T00:22:26;16.50;99.90
52941;DHT22;62001;53.366;6.636;2023-07-31T00:24:52;16.50;99.90
52941;DHT22;62001;53.366;6.636;2023-07-31T00:27:18;16.50;99.90
52941;DHT22;62001;53.366;6.636;2023-07-31T00:29:44;16.60;99.90
52941;DHT22;62001;53.366;6.636;2023-07-31T00:32:09;16.50;99.90
52941;DHT22;62001;53.366;6.636;2023-07-31T00:34:35;16.60;99.90
52941;DHT22;62001;53.366;6.636;2023-07-31T00:37:01;16.50;99.90
52941;DHT22;62001;53.366;6.636;2023-07-31T00:39:27;16.50;99.90
52941;DHT22;62001;53.366;6.636;2023-07-31T00:41:52;16.60;99.90
52941;DHT22;62001;53.366;6.636;2023-07-31T00:44:18;16.60;99.90
52941;DHT22;62001;53.366;6.636;2023-07-31T00:46:44;16.60;99.90
52941;DHT22;62001;53.366;6.636;2023-07-31T00:49:11;16.60;99.90
52941;DHT22;62001;53.366;6.636;2023-07-31T00:51:37;16.60;99.90
52941;DHT22;62001;53.366;6.636;2023-07-31T00:54:03;16.60;99.90
52941;DHT22;62001;53.366;6.636;2023-07-31T00:56:29;16.60;99.90
52941;DHT22;62001;53.366;6.636;2023-07-31T00:58:56;16.60;99.90
52941;DHT22;62001;53.366;6.636;2023-07-31T01:01:22;16.60;99.90
52941;DHT22;62001;53.366;6.636;2023-07-31T01:03:49;16.60;99.90
52941;DHT22;62001;53.366;6.636;2023-07-31T01:06:34;16.50;99.90
52941;DHT22;62001;53.366;6.636;2023-07-31T01:09:40;16.50;99.90
52941;DHT22;62001;53.366;6.636;2023-07-31T01:12:09;16.50;99.90
52941;DHT22;62001;53.366;6.636;2023-07-31T01:14:38;16.50;99.90
52941;DHT22;62001;53.366;6.636;2023-07-31T01:17:04;16.50;99.90
52941;DHT22;62001;53.366;6.636;2023-07-31T01:19:30;16.50;99.90
52941;DHT22;62001;53.366;6.636;2023-07-31T01:22:28;16.50;99.90
52941;DHT22;62001;53.366;6.636;2023-07-31T01:28:10;16.50;99.90
52941;DHT22;62001;53.366;6.636;2023-07-31T01:30:42;16.40;99.90
52941;DHT22;62001;53.366;6.636;2023-07-31T01:33:09;16.40;99.90
52941;DHT22;62001;53.366;6.636;2023-07-31T01:35:36;16.40;99.90
52941;DHT22;62001;53.366;6.636;2023-07-31T01:38:03;16.40;99.90
52941;DHT22;62001;53.366;6.636;2023-07-31T01:40:30;16.30;99.90
52941;DHT22;62001;53.366;6.636;2023-07-31T01:42:55;16.30;99.90
52941;DHT22;62001;53.366;6.636;2023-07-31T01:45:21;16.30;99.90
52941;DHT22;62001;53.366;6.636;2023-07-31T01:47:47;16.20;99.90
52941;DHT22;62001;53.366;6.636;2023-07-31T01:50:13;16.20;99.90
52941;DHT22;62001;53.366;6.636;2023-07-31T01:52:39;16.20;99.90
52941;DHT22;62001;53.366;6.636;2023-07-31T01:55:05;16.20;99.90
52941;DHT22;62001;53.366;6.636;2023-07-31T01:57:30;16.20;99.90
52941;DHT22;62001;53.366;6.636;2023-07-31T01:59:56;16.20;99.90
52941;DHT22;62001;53.366;6.636;2023-07-31T02:02:22;16.10;99.90
52941;DHT22;62001;53.366;6.636;2023-07-31T02:04:49;16.10;99.90
52941;DHT22;62001;53.366;6.636;2023-07-31T02:07:14;16.10;99.90
52941;DHT22;62001;53.366;6.636;2023-07-31T02:09:40;16.10;99.90
52941;DHT22;62001;53.366;6.636;2023-07-31T02:12:07;16.10;99.90
52941;DHT22;62001;53.366;6.636;2023-07-31T02:14:34;16.10;99.90
52941;DHT22;62001;53.366;6.636;2023-07-31T02:17:00;16.10;99.90
52941;DHT22;62001;53.366;6.636;2023-07-31T02:19:26;16.00;99.90
52941;DHT22;62001;53.366;6.636;2023-07-31T02:21:52;16.00;99.90
52941;DHT22;62001;53.366;6.636;2023-07-31T02:24:18;16.10;99.90
52941;DHT22;62001;53.366;6.636;2023-07-31T02:26:44;16.10;99.90
52941;DHT22;62001;53.366;6.636;2023-07-31T02:29:10;16.10;99.90
52941;DHT22;62001;53.366;6.636;2023-07-31T02:31:35;16.10;99.90
52941;DHT22;62001;53.366;6.636;2023-07-31T02:34:01;16.10;99.90
52941;DHT22;62001;53.366;6.636;2023-07-31T02:36:27;16.10;99.90
52941;DHT22;62001;53.366;6.636;2023-07-31T02:38:53;16.00;99.90
52941;DHT22;62001;53.366;6.636;2023-07-31T02:41:19;16.00;99.90
52941;DHT22;62001;53.366;6.636;2023-07-31T02:43:44;16.00;99.90
52941;DHT22;62001;53.366;6.636;2023-07-31T02:46:10;16.00;99.90
52941;DHT22;62001;53.366;6.636;2023-07-31T02:48:36;16.00;99.90
52941;DHT22;62001;53.366;6.636;2023-07-31T02:51:02;15.90;99.90
52941;DHT22;62001;53.366;6.636;2023-07-31T02:53:28;15.90;99.90
52941;DHT22;62001;53.366;6.636;2023-07-31T02:55:54;15.90;99.90
52941;DHT22;62001;53.366;6.636;2023-07-31T02:58:19;16.00;99.90
52941;DHT22;62001;53.366;6.636;2023-07-31T03:00:45;16.00;99.90
52941;DHT22;62001;53.366;6.636;2023-07-31T03:03:11;15.90;99.90
52941;DHT22;62001;53.366;6.636;2023-07-31T03:05:37;15.90;99.90
52941;DHT22;62001;53.366;6.636;2023-07-31T03:08:03;15.90;99.90
52941;DHT22;62001;53.366;6.636;2023-07-31T03:10:29;15.90;99.90
52941;DHT22;62001;53.366;6.636;2023-07-31T03:12:55;15.90;99.90
52941;DHT22;62001;53.366;6.636;2023-07-31T03:15:21;15.90;99.90
52941;DHT22;62001;53.366;6.636;2023-07-31T03:17:47;15.90;99.90
52941;DHT22;62001;53.366;6.636;2023-07-31T03:20:13;15.90;99.90
52941;DHT22;62001;53.366;6.636;2023-07-31T03:22:39;15.90;99.90
52941;DHT22;62001;53.366;6.636;2023-07-31T03:25:05;15.90;99.90
52941;DHT22;62001;53.366;6.636;2023-07-31T03:27:32;15.90;99.90
52941;DHT22;62001;53.366;6.636;2023-07-31T03:29:59;15.90;99.90
52941;DHT22;62001;53.366;6.636;2023-07-31T03:32:25;15.90;99.90
52941;DHT22;62001;53.366;6.636;2023-07-31T03:34:50;15.90;99.90
52941;DHT22;62001;53.366;6.636;2023-07-31T03:37:16;15.90;99.90
52941;DHT22;62001;53.366;6.636;2023-07-31T03:39:42;15.90;99.90
52941;DHT22;62001;53.366;6.636;2023-07-31T03:42:08;15.90;99.90
52941;DHT22;62001;53.366;6.636;2023-07-31T03:44:34;15.90;99.90
52941;DHT22;62001;53.366;6.636;2023-07-31T03:47:00;15.90;99.90
52941;DHT22;62001;53.366;6.636;2023-07-31T03:49:26;15.90;99.90
52941;DHT22;62001;53.366;6.636;2023-07-31T03:51:51;15.90;99.90
52941;DHT22;62001;53.366;6.636;2023-07-31T03:54:17;15.90;99.90
52941;DHT22;62001;53.366;6.636;2023-07-31T03:56:43;15.90;99.90
52941;DHT22;62001;53.366;6.636;2023-07-31T03:59:09;15.90;99.90
52941;DHT22;62001;53.366;6.636;2023-07-31T04:01:35;15.90;99.90
52941;DHT22;62001;53.366;6.636;2023-07-31T04:04:01;15.90;99.90
52941;DHT22;62001;53.366;6.636;2023-07-31T04:06:27;15.90;99.90
52941;DHT22;62001;53.366;6.636;2023-07-31T04:08:53;15.90;99.90
52941;DHT22;62001;53.366;6.636;2023-07-31T04:11:18;15.90;99.90
52941;DHT22;62001;53.366;6.636;2023-07-31T04:13:44;15.90;99.90
52941;DHT22;62001;53.366;6.636;2023-07-31T04:16:10;15.90;99.90
52941;DHT22;62001;53.366;6.636;2023-07-31T04:18:37;15.90;99.90
52941;DHT22;62001;53.366;6.636;2023-07-31T04:21:03;15.90;99.90
52941;DHT22;62001;53.366;6.636;2023-07-31T04:23:28;15.90;99.90
52941;DHT22;62001;53.366;6.636;2023-07-31T04:25:55;15.90;99.90
52941;DHT22;62001;53.366;6.636;2023-07-31T04:28:21;15.90;99.90
52941;DHT22;62001;53.366;6.636;2023-07-31T04:30:47;15.90;99.90
52941;DHT22;62001;53.366;6.636;2023-07-31T04:33:13;15.90;99.90
52941;DHT22;62001;53.366;6.636;2023-07-31T04:35:38;15.90;99.90
52941;DHT22;62001;53.366;6.636;2023-07-31T04:38:04;15.90;99.90
52941;DHT22;62001;53.366;6.636;2023-07-31T04:40:30;15.90;99.90
52941;DHT22;62001;53.366;6.636;2023-07-31T04:42:56;15.90;99.90
52941;DHT22;62001;53.366;6.636;2023-07-31T04:45:22;15.90;99.90
52941;DHT22;62001;53.366;6.636;2023-07-31T04:47:48;15.90;99.90
52941;DHT22;62001;53.366;6.636;2023-07-31T04:50:13;15.90;99.90
52941;DHT22;62001;53.366;6.636;2023-07-31T04:52:39;15.90;99.90
52941;DHT22;62001;53.366;6.636;2023-07-31T04:55:05;15.90;99.90
52941;DHT22;62001;53.366;6.636;2023-07-31T04:57:31;15.90;99.90
52941;DHT22;62001;53.366;6.636;2023-07-31T04:59:57;15.90;99.90
52941;DHT22;62001;53.366;6.636;2023-07-31T05:02:23;15.90;99.90
52941;DHT22;62001;53.366;6.636;2023-07-31T05:04:50;15.80;99.90
52941;DHT22;62001;53.366;6.636;2023-07-31T05:07:15;15.90;99.90
52941;DHT22;62001;53.366;6.636;2023-07-31T05:09:42;15.90;99.90
52941;DHT22;62001;53.366;6.636;2023-07-31T05:12:08;15.90;99.90
52941;DHT22;62001;53.366;6.636;2023-07-31T05:14:34;15.90;99.90
52941;DHT22;62001;53.366;6.636;2023-07-31T05:17:00;15.90;99.90
52941;DHT22;62001;53.366;6.636;2023-07-31T05:19:26;15.90;99.90
52941;DHT22;62001;53.366;6.636;2023-07-31T05:21:51;15.90;99.90
52941;DHT22;62001;53.366;6.636;2023-07-31T05:24:17;15.90;99.90
52941;DHT22;62001;53.366;6.636;2023-07-31T05:26:43;15.90;99.90
52941;DHT22;62001;53.366;6.636;2023-07-31T05:29:09;15.90;99.90
52941;DHT22;62001;53.366;6.636;2023-07-31T05:31:35;15.90;99.90
52941;DHT22;62001;53.366;6.636;2023-07-31T05:34:01;15.80;99.90
52941;DHT22;62001;53.366;6.636;2023-07-31T05:36:26;15.90;99.90
52941;DHT22;62001;53.366;6.636;2023-07-31T05:38:52;15.90;99.90
52941;DHT22;62001;53.366;6.636;2023-07-31T05:41:18;15.90;99.90
52941;DHT22;62001;53.366;6.636;2023-07-31T05:43:44;15.90;99.90
52941;DHT22;62001;53.366;6.636;2023-07-31T05:46:10;15.90;99.90
52941;DHT22;62001;53.366;6.636;2023-07-31T05:48:37;15.90;99.90
52941;DHT22;62001;53.366;6.636;2023-07-31T05:51:03;15.90;99.90
52941;DHT22;62001;53.366;6.636;2023-07-31T05:53:29;15.90;99.90
52941;DHT22;62001;53.366;6.636;2023-07-31T05:55:55;15.90;99.90
52941;DHT22;62001;53.366;6.636;2023-07-31T05:58:21;15.90;99.90
52941;DHT22;62001;53.366;6.636;2023-07-31T06:00:46;15.90;99.90
52941;DHT22;62001;53.366;6.636;2023-07-31T06:03:12;15.80;99.90
52941;DHT22;62001;53.366;6.636;2023-07-31T06:05:38;15.80;99.90
52941;DHT22;62001;53.366;6.636;2023-07-31T06:08:04;15.80;99.90
52941;DHT22;62001;53.366;6.636;2023-07-31T06:10:30;15.80;99.90
52941;DHT22;62001;53.366;6.636;2023-07-31T06:12:56;15.80;99.90
52941;DHT22;62001;53.366;6.636;2023-07-31T06:15:22;15.80;99.90
52941;DHT22;62001;53.366;6.636;2023-07-31T06:17:48;15.80;99.90
52941;DHT22;62001;53.366;6.636;2023-07-31T06:20:14;15.90;99.90
52941;DHT22;62001;53.366;6.636;2023-07-31T06:22:40;15.90;99.90
52941;DHT22;62001;53.366;6.636;2023-07-31T06:25:06;15.90;99.90
52941;DHT22;62001;53.366;6.636;2023-07-31T06:27:32;15.90;99.90
52941;DHT22;62001;53.366;6.636;2023-07-31T06:29:58;16.00;99.90
52941;DHT22;62001;53.366;6.636;2023-07-31T06:32:24;16.00;99.90
52941;DHT22;62001;53.366;6.636;2023-07-31T06:34:50;16.10;99.90
52941;DHT22;62001;53.366;6.636;2023-07-31T06:37:16;16.20;99.90
52941;DHT22;62001;53.366;6.636;2023-07-31T06:39:42;16.20;99.90
52941;DHT22;62001;53.366;6.636;2023-07-31T06:42:08;16.30;99.90
52941;DHT22;62001;53.366;6.636;2023-07-31T06:44:33;16.40;99.90
52941;DHT22;62001;53.366;6.636;2023-07-31T06:46:59;16.40;99.90
52941;DHT22;62001;53.366;6.636;2023-07-31T06:49:25;16.40;99.90
52941;DHT22;62001;53.366;6.636;2023-07-31T06:51:51;16.50;99.90
52941;DHT22;62001;53.366;6.636;2023-07-31T06:54:17;16.50;99.90
52941;DHT22;62001;53.366;6.636;2023-07-31T06:56:43;16.50;99.90
52941;DHT22;62001;53.366;6.636;2023-07-31T06:59:08;16.60;99.90
52941;DHT22;62001;53.366;6.636;2023-07-31T07:01:34;16.60;99.90
52941;DHT22;62001;53.366;6.636;2023-07-31T07:04:00;16.60;99.90
52941;DHT22;62001;53.366;6.636;2023-07-31T07:06:26;16.70;99.90
52941;DHT22;62001;53.366;6.636;2023-07-31T07:08:52;16.70;99.90
52941;DHT22;62001;53.366;6.636;2023-07-31T07:11:18;16.70;99.90
52941;DHT22;62001;53.366;6.636;2023-07-31T07:13:44;16.80;99.90
52941;DHT22;62001;53.366;6.636;2023-07-31T07:16:10;16.80;99.90
52941;DHT22;62001;53.366;6.636;2023-07-31T07:18:36;16.80;99.90
52941;DHT22;62001;53.366;6.636;2023-07-31T07:21:02;16.90;99.90
52941;DHT22;62001;53.366;6.636;2023-07-31T07:23:31;16.90;99.90
52941;DHT22;62001;53.366;6.636;2023-07-31T07:25:57;17.10;99.90
52941;DHT22;62001;53.366;6.636;2023-07-31T07:28:22;17.20;99.90
52941;DHT22;62001;53.366;6.636;2023-07-31T07:30:54;17.40;99.90
52941;DHT22;62001;53.366;6.636;2023-07-31T07:33:20;17.50;99.90
52941;DHT22;62001;53.366;6.636;2023-07-31T07:35:46;17.60;99.90
52941;DHT22;62001;53.366;6.636;2023-07-31T07:38:14;17.60;99.90
52941;DHT22;62001;53.366;6.636;2023-07-31T07:40:41;17.70;99.90
52941;DHT22;62001;53.366;6.636;2023-07-31T07:43:06;17.70;99.90
52941;DHT22;62001;53.366;6.636;2023-07-31T07:45:32;17.70;99.90
52941;DHT22;62001;53.366;6.636;2023-07-31T07:47:58;17.70;99.90
52941;DHT22;62001;53.366;6.636;2023-07-31T07:50:24;17.70;99.90
52941;DHT22;62001;53.366;6.636;2023-07-31T07:52:50;17.70;99.90
52941;DHT22;62001;53.366;6.636;2023-07-31T07:55:16;17.80;99.90
52941;DHT22;62001;53.366;6.636;2023-07-31T07:57:42;17.80;99.90
52941;DHT22;62001;53.366;6.636;2023-07-31T08:00:11;17.80;99.90
52941;DHT22;62001;53.366;6.636;2023-07-31T08:02:37;17.80;99.90
52941;DHT22;62001;53.366;6.636;2023-07-31T08:05:04;17.80;99.90
52941;DHT22;62001;53.366;6.636;2023-07-31T08:07:30;17.80;99.90
52941;DHT22;62001;53.366;6.636;2023-07-31T08:09:56;17.80;99.90
52941;DHT22;62001;53.366;6.636;2023-07-31T08:12:22;17.80;99.90
52941;DHT22;62001;53.366;6.636;2023-07-31T08:14:50;17.90;99.90
52941;DHT22;62001;53.366;6.636;2023-07-31T08:17:17;17.90;99.90
52941;DHT22;62001;53.366;6.636;2023-07-31T08:19:43;17.90;99.90
52941;DHT22;62001;53.366;6.636;2023-07-31T08:22:10;17.90;99.90
52941;DHT22;62001;53.366;6.636;2023-07-31T08:24:36;17.90;99.90
52941;DHT22;62001;53.366;6.636;2023-07-31T08:27:02;17.90;99.90
52941;DHT22;62001;53.366;6.636;2023-07-31T08:29:28;17.90;99.90
52941;DHT22;62001;53.366;6.636;2023-07-31T08:31:54;17.90;99.90
52941;DHT22;62001;53.366;6.636;2023-07-31T08:34:20;17.90;99.90
52941;DHT22;62001;53.366;6.636;2023-07-31T08:36:45;17.90;99.90
52941;DHT22;62001;53.366;6.636;2023-07-31T08:39:11;17.80;99.90
52941;DHT22;62001;53.366;6.636;2023-07-31T08:41:38;17.80;99.90
52941;DHT22;62001;53.366;6.636;2023-07-31T08:44:05;17.70;99.90
52941;DHT22;62001;53.366;6.636;2023-07-31T08:46:31;17.80;99.90
52941;DHT22;62001;53.366;6.636;2023-07-31T08:48:59;17.80;99.90
52941;DHT22;62001;53.366;6.636;2023-07-31T08:51:26;17.90;99.90
52941;DHT22;62001;53.366;6.636;2023-07-31T08:53:53;18.00;99.90
52941;DHT22;62001;53.366;6.636;2023-07-31T08:56:19;18.10;99.90
52941;DHT22;62001;53.366;6.636;2023-07-31T08:58:46;18.30;99.90
52941;DHT22;62001;53.366;6.636;2023-07-31T09:01:13;18.40;99.90
52941;DHT22;62001;53.366;6.636;2023-07-31T09:03:40;18.50;99.90
52941;DHT22;62001;53.366;6.636;2023-07-31T09:06:07;18.60;99.90
52941;DHT22;62001;53.366;6.636;2023-07-31T09:08:33;18.70;99.90
52941;DHT22;62001;53.366;6.636;2023-07-31T09:11:01;18.80;99.90
52941;DHT22;62001;53.366;6.636;2023-07-31T09:13:31;18.90;99.90
52941;DHT22;62001;53.366;6.636;2023-07-31T09:15:57;18.90;99.90
52941;DHT22;62001;53.366;6.636;2023-07-31T09:18:23;19.00;99.90
52941;DHT22;62001;53.366;6.636;2023-07-31T09:21:05;19.00;99.90
52941;DHT22;62001;53.366;6.636;2023-07-31T09:23:43;19.00;99.90
52941;DHT22;62001;53.366;6.636;2023-07-31T09:26:10;19.00;99.90
52941;DHT22;62001;53.366;6.636;2023-07-31T09:28:36;19.00;99.90
52941;DHT22;62001;53.366;6.636;2023-07-31T09:31:02;19.00;99.90
52941;DHT22;62001;53.366;6.636;2023-07-31T09:33:28;19.10;99.90
52941;DHT22;62001;53.366;6.636;2023-07-31T09:35:54;19.20;99.90
52941;DHT22;62001;53.366;6.636;2023-07-31T09:38:20;19.30;99.90
52941;DHT22;62001;53.366;6.636;2023-07-31T09:40:51;19.40;99.90
52941;DHT22;62001;53.366;6.636;2023-07-31T09:43:19;19.40;99.90
52941;DHT22;62001;53.366;6.636;2023-07-31T09:45:46;19.40;99.90
52941;DHT22;62001;53.366;6.636;2023-07-31T09:48:14;19.40;99.90
52941;DHT22;62001;53.366;6.636;2023-07-31T09:50:47;19.50;99.90
52941;DHT22;62001;53.366;6.636;2023-07-31T09:53:14;19.60;99.90
52941;DHT22;62001;53.366;6.636;2023-07-31T09:55:41;19.60;99.90
52941;DHT22;62001;53.366;6.636;2023-07-31T09:58:09;19.50;99.90
52941;DHT22;62001;53.366;6.636;2023-07-31T10:00:35;19.50;99.90
52941;DHT22;62001;53.366;6.636;2023-07-31T10:03:07;19.40;99.90
52941;DHT22;62001;53.366;6.636;2023-07-31T10:05:42;19.40;99.90
52941;DHT22;62001;53.366;6.636;2023-07-31T10:08:10;19.30;99.90
52941;DHT22;62001;53.366;6.636;2023-07-31T10:10:37;19.30;99.90
52941;DHT22;62001;53.366;6.636;2023-07-31T10:13:06;19.20;99.90
52941;DHT22;62001;53.366;6.636;2023-07-31T10:15:33;19.20;99.90
52941;DHT22;62001;53.366;6.636;2023-07-31T10:18:00;19.20;99.90
52941;DHT22;62001;53.366;6.636;2023-07-31T10:20:26;19.20;99.90
52941;DHT22;62001;53.366;6.636;2023-07-31T10:22:55;19.10;99.90
52941;DHT22;62001;53.366;6.636;2023-07-31T10:25:22;19.10;99.90
52941;DHT22;62001;53.366;6.636;2023-07-31T10:27:48;19.20;99.90
52941;DHT22;62001;53.366;6.636;2023-07-31T10:30:20;19.30;99.90
52941;DHT22;62001;53.366;6.636;2023-07-31T10:32:48;19.40;99.90
52941;DHT22;62001;53.366;6.636;2023-07-31T10:35:16;19.60;99.90
52941;DHT22;62001;53.366;6.636;2023-07-31T10:37:43;19.70;99.90
52941;DHT22;62001;53.366;6.636;2023-07-31T10:40:16;19.90;99.90
52941;DHT22;62001;53.366;6.636;2023-07-31T10:42:49;19.90;99.90
52941;DHT22;62001;53.366;6.636;2023-07-31T10:45:33;19.80;99.90
52941;DHT22;62001;53.366;6.636;2023-07-31T10:48:04;19.70;99.90
52941;DHT22;62001;53.366;6.636;2023-07-31T10:50:37;19.60;99.90
52941;DHT22;62001;53.366;6.636;2023-07-31T10:53:03;19.70;99.90
52941;DHT22;62001;53.366;6.636;2023-07-31T10:55:40;19.70;99.90
52941;DHT22;62001;53.366;6.636;2023-07-31T10:58:09;19.80;99.90
52941;DHT22;62001;53.366;6.636;2023-07-31T11:00:41;19.90;99.90
52941;DHT22;62001;53.366;6.636;2023-07-31T11:03:09;19.90;99.90
52941;DHT22;62001;53.366;6.636;2023-07-31T11:05:42;20.00;99.90
52941;DHT22;62001;53.366;6.636;2023-07-31T11:08:15;20.00;99.90
52941;DHT22;62001;53.366;6.636;2023-07-31T11:10:41;20.00;99.90
52941;DHT22;62001;53.366;6.636;2023-07-31T11:13:07;19.80;99.90
52941;DHT22;62001;53.366;6.636;2023-07-31T11:15:33;19.70;99.90
52941;DHT22;62001;53.366;6.636;2023-07-31T11:18:02;19.70;99.90
52941;DHT22;62001;53.366;6.636;2023-07-31T11:20:34;19.80;99.90
52941;DHT22;62001;53.366;6.636;2023-07-31T11:23:02;19.80;99.90
52941;DHT22;62001;53.366;6.636;2023-07-31T11:25:31;19.90;99.90
52941;DHT22;62001;53.366;6.636;2023-07-31T11:28:04;20.00;99.90
52941;DHT22;62001;53.366;6.636;2023-07-31T11:30:30;20.20;99.90
52941;DHT22;62001;53.366;6.636;2023-07-31T11:32:56;20.30;99.90
52941;DHT22;62001;53.366;6.636;2023-07-31T11:35:22;20.40;99.90
52941;DHT22;62001;53.366;6.636;2023-07-31T11:37:48;20.60;99.90
52941;DHT22;62001;53.366;6.636;2023-07-31T11:40:14;20.60;99.90
52941;DHT22;62001;53.366;6.636;2023-07-31T11:42:40;20.70;99.90
52941;DHT22;62001;53.366;6.636;2023-07-31T11:45:09;20.70;99.90
52941;DHT22;62001;53.366;6.636;2023-07-31T11:47:37;20.80;99.90
52941;DHT22;62001;53.366;6.636;2023-07-31T11:50:09;20.90;99.90
52941;DHT22;62001;53.366;6.636;2023-07-31T11:52:42;21.10;99.90
52941;DHT22;62001;53.366;6.636;2023-07-31T11:55:09;21.20;99.90
52941;DHT22;62001;53.366;6.636;2023-07-31T11:57:39;21.20;99.90
52941;DHT22;62001;53.366;6.636;2023-07-31T12:00:07;21.30;99.90
52941;DHT22;62001;53.366;6.636;2023-07-31T12:02:35;21.30;99.90
52941;DHT22;62001;53.366;6.636;2023-07-31T12:05:01;21.30;99.90
52941;DHT22;62001;53.366;6.636;2023-07-31T12:07:27;21.30;99.90
52941;DHT22;62001;53.366;6.636;2023-07-31T12:09:54;21.30;99.90
52941;DHT22;62001;53.366;6.636;2023-07-31T12:12:21;21.30;99.90
52941;DHT22;62001;53.366;6.636;2023-07-31T12:14:48;21.30;99.90
52941;DHT22;62001;53.366;6.636;2023-07-31T12:17:14;21.30;99.90
52941;DHT22;62001;53.366;6.636;2023-07-31T12:19:41;21.30;99.90
52941;DHT22;62001;53.366;6.636;2023-07-31T12:22:14;21.30;99.90
52941;DHT22;62001;53.366;6.636;2023-07-31T12:24:43;21.40;99.90
52941;DHT22;62001;53.366;6.636;2023-07-31T12:27:13;21.40;99.90
52941;DHT22;62001;53.366;6.636;2023-07-31T12:29:41;21.40;99.90
52941;DHT22;62001;53.366;6.636;2023-07-31T12:32:24;21.40;99.90
52941;DHT22;62001;53.366;6.636;2023-07-31T12:34:51;21.30;99.90
52941;DHT22;62001;53.366;6.636;2023-07-31T12:37:17;21.30;99.90
52941;DHT22;62001;53.366;6.636;2023-07-31T12:39:43;21.10;99.90
52941;DHT22;62001;53.366;6.636;2023-07-31T12:42:09;20.90;99.90
52941;DHT22;62001;53.366;6.636;2023-07-31T12:44:35;20.90;99.90
52941;DHT22;62001;53.366;6.636;2023-07-31T12:47:00;20.90;99.90
52941;DHT22;62001;53.366;6.636;2023-07-31T12:49:26;20.90;99.90
52941;DHT22;62001;53.366;6.636;2023-07-31T12:51:52;20.90;99.90
52941;DHT22;62001;53.366;6.636;2023-07-31T12:54:19;20.90;99.90
52941;DHT22;62001;53.366;6.636;2023-07-31T12:56:45;20.80;99.90
52941;DHT22;62001;53.366;6.636;2023-07-31T12:59:11;20.60;99.90
52941;DHT22;62001;53.366;6.636;2023-07-31T13:01:37;20.60;99.90
52941;DHT22;62001;53.366;6.636;2023-07-31T13:04:03;20.60;99.90
52941;DHT22;62001;53.366;6.636;2023-07-31T13:06:29;20.60;99.90
52941;DHT22;62001;53.366;6.636;2023-07-31T13:08:55;20.70;99.90
52941;DHT22;62001;53.366;6.636;2023-07-31T13:11:21;20.80;99.90
52941;DHT22;62001;53.366;6.636;2023-07-31T13:13:47;20.90;99.90
52941;DHT22;62001;53.366;6.636;2023-07-31T13:16:13;20.90;99.90
52941;DHT22;62001;53.366;6.636;2023-07-31T13:18:38;20.90;99.90
52941;DHT22;62001;53.366;6.636;2023-07-31T13:21:04;20.80;99.90
52941;DHT22;62001;53.366;6.636;2023-07-31T13:23:30;20.80;99.90
52941;DHT22;62001;53.366;6.636;2023-07-31T13:25:56;20.80;99.90
52941;DHT22;62001;53.366;6.636;2023-07-31T13:28:22;20.80;99.90
52941;DHT22;62001;53.366;6.636;2023-07-31T13:30:48;20.80;99.90
52941;DHT22;62001;53.366;6.636;2023-07-31T13:33:13;20.80;99.90
52941;DHT22;62001;53.366;6.636;2023-07-31T13:35:39;20.80;99.90
52941;DHT22;62001;53.366;6.636;2023-07-31T13:38:05;20.90;99.90
52941;DHT22;62001;53.366;6.636;2023-07-31T13:40:32;20.90;99.90
52941;DHT22;62001;53.366;6.636;2023-07-31T13:42:58;20.90;99.90
52941;DHT22;62001;53.366;6.636;2023-07-31T13:45:24;20.90;99.90
52941;DHT22;62001;53.366;6.636;2023-07-31T13:47:50;20.90;99.90
52941;DHT22;62001;53.366;6.636;2023-07-31T13:50:17;20.80;99.90
52941;DHT22;62001;53.366;6.636;2023-07-31T13:52:44;20.80;99.90
52941;DHT22;62001;53.366;6.636;2023-07-31T13:55:10;20.80;99.90
52941;DHT22;62001;53.366;6.636;2023-07-31T13:57:36;20.80;99.90
52941;DHT22;62001;53.366;6.636;2023-07-31T14:00:03;20.90;99.90
52941;DHT22;62001;53.366;6.636;2023-07-31T14:02:32;20.90;99.90
52941;DHT22;62001;53.366;6.636;2023-07-31T14:04:58;20.90;99.90
52941;DHT22;62001;53.366;6.636;2023-07-31T14:07:24;20.90;99.90
52941;DHT22;62001;53.366;6.636;2023-07-31T14:09:50;21.00;99.90
52941;DHT22;62001;53.366;6.636;2023-07-31T14:12:15;21.20;99.90
52941;DHT22;62001;53.366;6.636;2023-07-31T14:14:41;21.40;99.90
52941;DHT22;62001;53.366;6.636;2023-07-31T14:17:07;21.70;99.90
52941;DHT22;62001;53.366;6.636;2023-07-31T14:19:33;21.70;99.90
52941;DHT22;62001;53.366;6.636;2023-07-31T14:21:59;21.70;99.90
52941;DHT22;62001;53.366;6.636;2023-07-31T14:24:25;21.70;99.90
52941;DHT22;62001;53.366;6.636;2023-07-31T14:26:51;21.60;99.90
52941;DHT22;62001;53.366;6.636;2023-07-31T14:29:17;21.60;99.90
52941;DHT22;62001;53.366;6.636;2023-07-31T14:31:42;21.50;99.90
52941;DHT22;62001;53.366;6.636;2023-07-31T14:34:09;21.50;99.90
52941;DHT22;62001;53.366;6.636;2023-07-31T14:36:34;21.40;99.90
52941;DHT22;62001;53.366;6.636;2023-07-31T14:39:00;21.30;99.90
52941;DHT22;62001;53.366;6.636;2023-07-31T14:41:26;21.20;99.90
52941;DHT22;62001;53.366;6.636;2023-07-31T14:43:52;21.20;99.90
52941;DHT22;62001;53.366;6.636;2023-07-31T14:46:18;21.10;99.90
52941;DHT22;62001;53.366;6.636;2023-07-31T14:48:44;21.00;99.90
52941;DHT22;62001;53.366;6.636;2023-07-31T14:51:09;21.10;99.90
52941;DHT22;62001;53.366;6.636;2023-07-31T14:53:35;21.10;99.90
52941;DHT22;62001;53.366;6.636;2023-07-31T14:56:01;21.00;99.90
52941;DHT22;62001;53.366;6.636;2023-07-31T14:58:28;21.10;99.90
52941;DHT22;62001;53.366;6.636;2023-07-31T15:00:54;21.10;99.90
52941;DHT22;62001;53.366;6.636;2023-07-31T15:03:20;21.10;99.90
52941;DHT22;62001;53.366;6.636;2023-07-31T15:05:45;21.10;99.90
52941;DHT22;62001;53.366;6.636;2023-07-31T15:08:11;21.10;99.90
52941;DHT22;62001;53.366;6.636;2023-07-31T15:10:37;21.00;99.90
52941;DHT22;62001;53.366;6.636;2023-07-31T15:13:03;21.00;99.90
52941;DHT22;62001;53.366;6.636;2023-07-31T15:15:29;20.90;99.90
52941;DHT22;62001;53.366;6.636;2023-07-31T15:17:55;20.90;99.90
52941;DHT22;62001;53.366;6.636;2023-07-31T15:20:21;20.80;99.90
52941;DHT22;62001;53.366;6.636;2023-07-31T15:22:47;20.80;99.90
52941;DHT22;62001;53.366;6.636;2023-07-31T15:25:14;20.80;99.90
52941;DHT22;62001;53.366;6.636;2023-07-31T15:27:39;20.80;99.90
52941;DHT22;62001;53.366;6.636;2023-07-31T15:30:06;20.80;99.90